createdAt,value
2019-03-29T00:00:20.962Z,51.43
2019-03-29T00:00:52.211Z,52.04
2019-03-29T00:01:23.438Z,51.47
2019-03-29T00:01:54.637Z,51.11
2019-03-29T00:02:25.843Z,52.63
2019-03-29T00:02:57.037Z,53.21
2019-03-29T00:03:28.268Z,53.74
2019-03-29T00:04:00.263Z,52.71
2019-03-29T00:04:32.172Z,52.70
2019-03-29T00:05:03.383Z,52.05
2019-03-29T00:05:34.640Z,50.56
2019-03-29T00:06:05.834Z,49.80
2019-03-29T00:06:37.568Z,48.98
2019-03-29T00:07:08.849Z,50.62
2019-03-29T00:07:41.901Z,49.67
2019-03-29T00:08:13.039Z,49.03
2019-03-29T00:08:44.237Z,48.85
2019-03-29T00:09:15.459Z,49.11
2019-03-29T00:09:46.711Z,48.17
2019-03-29T00:10:17.927Z,48.02
2019-03-29T00:10:49.160Z,49.85
2019-03-29T00:11:20.374Z,50.93
2019-03-29T00:11:51.594Z,50.67
2019-03-29T00:12:22.856Z,49.56
2019-03-29T00:12:54.052Z,47.98
2019-03-29T00:13:25.247Z,48.00
2019-03-29T00:13:56.445Z,47.89
2019-03-29T00:14:27.675Z,47.95
2019-03-29T00:14:58.884Z,48.36
2019-03-29T00:15:30.089Z,48.77
2019-03-29T00:16:01.306Z,49.36
2019-03-29T00:16:32.514Z,49.60
2019-03-29T00:17:03.732Z,49.49
2019-03-29T00:17:35.013Z,49.83
2019-03-29T00:18:06.634Z,49.84
2019-03-29T00:18:37.853Z,50.09
2019-03-29T00:19:09.038Z,50.36
2019-03-29T00:19:40.300Z,50.65
2019-03-29T00:20:11.508Z,50.80
2019-03-29T00:20:42.709Z,50.89
2019-03-29T00:21:13.927Z,51.16
2019-03-29T00:21:45.196Z,51.58
2019-03-29T00:22:16.411Z,51.65
2019-03-29T00:22:47.615Z,52.01
2019-03-29T00:23:18.811Z,52.13
2019-03-29T00:23:50.013Z,52.18
2019-03-29T00:24:21.227Z,52.41
2019-03-29T00:24:52.437Z,52.56
2019-03-29T00:25:23.678Z,52.52
2019-03-29T00:25:54.901Z,52.27
2019-03-29T00:26:26.140Z,52.08
2019-03-29T00:26:57.335Z,52.10
2019-03-29T00:27:28.619Z,52.48
2019-03-29T00:27:59.846Z,52.69
2019-03-29T00:28:31.072Z,52.92
2019-03-29T00:29:03.094Z,52.87
2019-03-29T00:29:34.497Z,52.89
2019-03-29T00:30:05.813Z,52.93
2019-03-29T00:30:37.070Z,52.87
2019-03-29T00:31:08.281Z,52.86
2019-03-29T00:31:40.080Z,53.04
2019-03-29T00:32:11.344Z,53.24
2019-03-29T00:32:42.547Z,53.59
2019-03-29T00:33:13.764Z,53.77
2019-03-29T00:33:44.969Z,53.47
2019-03-29T00:34:17.113Z,53.51
2019-03-29T00:34:48.348Z,53.66
2019-03-29T00:35:19.547Z,53.80
2019-03-29T00:35:50.773Z,53.73
2019-03-29T00:36:22.041Z,53.60
2019-03-29T00:36:53.284Z,53.61
2019-03-29T00:37:24.537Z,53.56
2019-03-29T00:37:56.109Z,54.58
2019-03-29T00:38:27.458Z,55.73
2019-03-29T00:38:58.664Z,56.60
2019-03-29T00:39:29.893Z,56.14
2019-03-29T00:40:01.079Z,55.00
2019-03-29T00:40:32.536Z,54.35
2019-03-29T00:41:04.373Z,53.96
2019-03-29T00:41:35.586Z,53.34
2019-03-29T00:42:06.804Z,52.75
2019-03-29T00:42:38.014Z,52.25
2019-03-29T00:43:09.301Z,52.19
2019-03-29T00:43:40.533Z,52.70
2019-03-29T00:44:11.740Z,52.27
2019-03-29T00:44:42.968Z,52.09
2019-03-29T00:45:14.214Z,52.11
2019-03-29T00:45:45.829Z,52.13
2019-03-29T00:46:17.105Z,52.10
2019-03-29T00:46:48.324Z,52.46
2019-03-29T00:47:19.517Z,53.01
2019-03-29T00:47:50.766Z,52.59
2019-03-29T00:48:22.181Z,52.34
2019-03-29T00:48:53.342Z,52.47
2019-03-29T00:49:24.561Z,53.11
2019-03-29T00:49:55.831Z,52.97
2019-03-29T00:50:27.035Z,53.25
2019-03-29T00:50:59.004Z,53.61
2019-03-29T00:51:30.328Z,52.99
2019-03-29T00:52:01.560Z,52.55
2019-03-29T00:52:32.752Z,51.98
2019-03-29T00:53:03.958Z,51.90
2019-03-29T00:53:35.875Z,51.77
2019-03-29T00:54:07.351Z,51.62
2019-03-29T00:54:38.530Z,51.74
2019-03-29T00:55:09.785Z,51.66
2019-03-29T00:55:41.006Z,51.75
2019-03-29T00:56:15.219Z,52.01
2019-03-29T00:56:46.424Z,52.36
2019-03-29T00:57:17.649Z,52.45
2019-03-29T00:57:48.839Z,51.98
2019-03-29T00:58:20.045Z,52.07
2019-03-29T00:58:51.271Z,52.38
2019-03-29T00:59:22.496Z,52.43
2019-03-29T00:59:53.693Z,52.42
2019-03-29T01:00:24.997Z,53.08
2019-03-29T01:00:56.288Z,53.46
2019-03-29T01:01:27.514Z,53.53
2019-03-29T01:01:58.718Z,53.62
2019-03-29T01:02:29.943Z,53.77
2019-03-29T01:03:01.159Z,53.96
2019-03-29T01:03:32.527Z,54.12
2019-03-29T01:04:03.736Z,54.31
2019-03-29T01:04:34.968Z,54.61
2019-03-29T01:05:06.172Z,54.86
2019-03-29T01:05:37.431Z,54.98
2019-03-29T01:06:08.691Z,55.10
2019-03-29T01:06:39.907Z,55.26
2019-03-29T01:07:11.131Z,55.40
2019-03-29T01:07:42.381Z,55.61
2019-03-29T01:08:13.625Z,55.71
2019-03-29T01:08:44.852Z,55.85
2019-03-29T01:09:16.067Z,56.13
2019-03-29T01:09:47.291Z,56.21
2019-03-29T01:10:18.490Z,56.33
2019-03-29T01:10:49.693Z,56.46
2019-03-29T01:11:21.003Z,56.52
2019-03-29T01:11:52.253Z,56.66
2019-03-29T01:12:23.463Z,56.84
2019-03-29T01:12:54.670Z,57.08
2019-03-29T01:13:25.884Z,57.21
2019-03-29T01:13:57.091Z,57.30
2019-03-29T01:14:28.302Z,57.35
2019-03-29T01:14:59.511Z,57.45
2019-03-29T01:15:30.724Z,57.52
2019-03-29T01:16:02.130Z,57.69
2019-03-29T01:16:33.438Z,57.41
2019-03-29T01:17:04.635Z,57.40
2019-03-29T01:17:35.837Z,57.50
2019-03-29T01:18:07.054Z,57.57
2019-03-29T01:18:38.348Z,57.62
2019-03-29T01:19:09.573Z,57.73
2019-03-29T01:19:40.794Z,57.74
2019-03-29T01:20:12.003Z,57.86
2019-03-29T01:20:43.210Z,58.00
2019-03-29T01:21:14.413Z,58.08
2019-03-29T01:21:45.671Z,58.41
2019-03-29T01:22:16.876Z,58.46
2019-03-29T01:22:48.081Z,58.72
2019-03-29T01:23:19.321Z,58.91
2019-03-29T01:23:50.582Z,58.96
2019-03-29T01:24:22.544Z,59.20
2019-03-29T01:24:53.749Z,59.52
2019-03-29T01:25:25.033Z,59.78
2019-03-29T01:25:56.244Z,59.92
2019-03-29T01:26:27.467Z,59.98
2019-03-29T01:26:58.718Z,60.43
2019-03-29T01:27:29.940Z,60.29
2019-03-29T01:28:01.170Z,60.29
2019-03-29T01:28:33.661Z,60.43
2019-03-29T01:29:04.961Z,60.88
2019-03-29T01:29:36.185Z,60.76
2019-03-29T01:30:07.713Z,60.88
2019-03-29T01:30:38.951Z,60.94
2019-03-29T01:31:10.186Z,61.08
2019-03-29T01:31:41.351Z,61.10
2019-03-29T01:32:12.635Z,61.24
2019-03-29T01:32:43.867Z,61.34
2019-03-29T01:33:15.075Z,61.69
2019-03-29T01:33:46.311Z,61.88
2019-03-29T01:34:17.526Z,62.30
2019-03-29T01:34:48.738Z,62.54
2019-03-29T01:35:19.942Z,62.93
2019-03-29T01:35:51.265Z,63.38
2019-03-29T01:36:22.473Z,62.15
2019-03-29T01:36:53.878Z,61.83
2019-03-29T01:37:25.436Z,61.58
2019-03-29T01:37:56.710Z,61.40
2019-03-29T01:38:27.995Z,62.26
2019-03-29T01:38:59.212Z,62.47
2019-03-29T01:39:30.453Z,61.85
2019-03-29T01:40:01.672Z,62.37
2019-03-29T01:40:32.995Z,61.64
2019-03-29T01:41:04.204Z,61.25
2019-03-29T01:41:35.418Z,61.74
2019-03-29T01:42:06.625Z,61.75
2019-03-29T01:42:37.832Z,61.62
2019-03-29T01:43:09.363Z,61.58
2019-03-29T01:43:41.304Z,61.51
2019-03-29T01:44:12.509Z,62.48
2019-03-29T01:44:43.756Z,62.73
2019-03-29T01:45:14.954Z,63.12
2019-03-29T01:45:46.269Z,62.85
2019-03-29T01:46:17.498Z,62.29
2019-03-29T01:46:48.703Z,62.17
2019-03-29T01:47:19.926Z,62.78
2019-03-29T01:47:51.179Z,62.88
2019-03-29T01:48:23.113Z,62.09
2019-03-29T01:48:54.547Z,61.23
2019-03-29T01:49:25.762Z,62.54
2019-03-29T01:49:56.985Z,61.95
2019-03-29T01:50:28.211Z,61.90
2019-03-29T01:50:59.434Z,61.44
2019-03-29T01:51:30.663Z,61.77
2019-03-29T01:52:01.924Z,61.43
2019-03-29T01:52:33.114Z,61.37
2019-03-29T01:53:04.330Z,61.33
2019-03-29T01:53:35.583Z,61.56
2019-03-29T01:54:06.790Z,61.47
2019-03-29T01:54:38.001Z,61.30
2019-03-29T01:55:09.212Z,61.59
2019-03-29T01:55:40.409Z,62.08
2019-03-29T01:56:11.622Z,63.09
2019-03-29T01:56:42.834Z,62.82
2019-03-29T01:57:14.048Z,62.36
2019-03-29T01:57:45.315Z,62.30
2019-03-29T01:58:16.521Z,62.21
2019-03-29T01:58:47.797Z,62.35
2019-03-29T01:59:18.992Z,62.58
2019-03-29T01:59:50.202Z,62.57
2019-03-29T02:00:21.473Z,62.66
2019-03-29T02:00:52.669Z,62.85
2019-03-29T02:01:23.892Z,63.11
2019-03-29T02:01:55.285Z,63.21
2019-03-29T02:02:26.495Z,63.27
2019-03-29T02:02:57.859Z,63.48
2019-03-29T02:03:29.101Z,63.35
2019-03-29T02:04:00.368Z,63.48
2019-03-29T02:04:31.562Z,63.50
2019-03-29T02:05:02.784Z,63.57
2019-03-29T02:05:34.011Z,63.59
2019-03-29T02:06:05.221Z,63.67
2019-03-29T02:06:36.452Z,63.71
2019-03-29T02:07:07.680Z,63.71
2019-03-29T02:07:38.958Z,63.89
2019-03-29T02:08:10.183Z,63.94
2019-03-29T02:08:41.399Z,64.05
2019-03-29T02:09:12.652Z,64.06
2019-03-29T02:09:43.859Z,64.31
2019-03-29T02:10:15.060Z,64.48
2019-03-29T02:10:46.267Z,64.67
2019-03-29T02:11:17.481Z,64.80
2019-03-29T02:11:48.756Z,64.87
2019-03-29T02:12:19.957Z,64.89
2019-03-29T02:12:51.177Z,65.13
2019-03-29T02:13:22.401Z,65.22
2019-03-29T02:13:53.603Z,65.26
2019-03-29T02:14:24.826Z,65.44
2019-03-29T02:14:56.035Z,65.29
2019-03-29T02:15:27.258Z,65.25
2019-03-29T02:15:58.477Z,65.30
2019-03-29T02:16:29.933Z,65.35
2019-03-29T02:17:01.231Z,65.32
2019-03-29T02:17:32.432Z,65.50
2019-03-29T02:18:03.706Z,65.85
2019-03-29T02:18:34.912Z,65.97
2019-03-29T02:19:06.279Z,65.89
2019-03-29T02:19:37.555Z,65.86
2019-03-29T02:20:08.762Z,65.82
2019-03-29T02:20:39.968Z,65.75
2019-03-29T02:21:11.207Z,65.76
2019-03-29T02:21:43.055Z,65.89
2019-03-29T02:22:14.543Z,65.91
2019-03-29T02:22:45.824Z,66.00
2019-03-29T02:23:17.026Z,65.86
2019-03-29T02:23:48.223Z,65.90
2019-03-29T02:24:19.443Z,65.86
2019-03-29T02:24:50.685Z,65.93
2019-03-29T02:25:21.985Z,65.89
2019-03-29T02:25:53.197Z,65.83
2019-03-29T02:26:24.451Z,65.89
2019-03-29T02:26:55.659Z,65.85
2019-03-29T02:27:27.190Z,65.90
2019-03-29T02:27:58.608Z,65.83
2019-03-29T02:28:29.825Z,65.89
2019-03-29T02:29:01.038Z,65.97
2019-03-29T02:29:32.258Z,66.00
2019-03-29T02:30:04.578Z,66.02
2019-03-29T02:30:37.395Z,66.17
2019-03-29T02:31:08.607Z,66.22
2019-03-29T02:31:42.134Z,66.25
2019-03-29T02:32:12.767Z,66.14
2019-03-29T02:32:43.974Z,66.09
2019-03-29T02:33:15.242Z,66.06
2019-03-29T02:33:47.675Z,66.03
2019-03-29T02:34:19.413Z,66.09
2019-03-29T02:34:50.631Z,66.12
2019-03-29T02:35:21.848Z,66.23
2019-03-29T02:35:53.061Z,66.23
2019-03-29T02:36:24.297Z,66.26
2019-03-29T02:36:55.582Z,66.33
2019-03-29T02:37:26.761Z,66.33
2019-03-29T02:37:57.986Z,66.33
2019-03-29T02:38:29.230Z,66.40
2019-03-29T02:39:00.466Z,66.46
2019-03-29T02:39:31.743Z,66.50
2019-03-29T02:40:02.978Z,66.83
2019-03-29T02:40:34.199Z,66.61
2019-03-29T02:41:05.411Z,66.71
2019-03-29T02:41:36.685Z,66.89
2019-03-29T02:42:07.914Z,66.67
2019-03-29T02:42:39.123Z,66.94
2019-03-29T02:43:11.107Z,66.91
2019-03-29T02:43:42.424Z,66.11
2019-03-29T02:44:13.630Z,65.51
2019-03-29T02:44:44.833Z,65.28
2019-03-29T02:45:16.027Z,65.29
2019-03-29T02:45:47.236Z,65.30
2019-03-29T02:46:18.491Z,65.19
2019-03-29T02:46:49.849Z,65.26
2019-03-29T02:47:21.683Z,65.33
2019-03-29T02:47:53.304Z,65.53
2019-03-29T02:48:24.514Z,65.63
2019-03-29T02:48:55.713Z,65.69
2019-03-29T02:49:26.933Z,65.75
2019-03-29T02:49:58.170Z,65.29
2019-03-29T02:50:29.398Z,65.36
2019-03-29T02:51:00.681Z,65.50
2019-03-29T02:51:32.911Z,65.55
2019-03-29T02:52:04.370Z,65.53
2019-03-29T02:52:35.583Z,65.61
2019-03-29T02:53:06.843Z,65.36
2019-03-29T02:53:38.046Z,65.46
2019-03-29T02:54:09.270Z,65.52
2019-03-29T02:54:40.522Z,65.61
2019-03-29T02:55:11.757Z,65.66
2019-03-29T02:55:42.957Z,65.62
2019-03-29T02:56:14.239Z,65.62
2019-03-29T02:56:45.489Z,65.67
2019-03-29T02:57:16.713Z,65.60
2019-03-29T02:57:47.904Z,65.53
2019-03-29T02:58:19.197Z,65.52
2019-03-29T02:58:50.427Z,65.61
2019-03-29T02:59:21.661Z,65.64
2019-03-29T02:59:52.904Z,65.63
2019-03-29T03:00:24.130Z,65.54
2019-03-29T03:00:55.372Z,65.54
2019-03-29T03:01:26.538Z,65.54
2019-03-29T03:01:57.753Z,65.63
2019-03-29T03:02:28.961Z,65.67
2019-03-29T03:03:00.160Z,65.90
2019-03-29T03:03:31.438Z,65.85
2019-03-29T03:04:02.655Z,65.67
2019-03-29T03:04:33.842Z,65.61
2019-03-29T03:05:05.085Z,66.19
2019-03-29T03:05:36.295Z,66.06
2019-03-29T03:06:07.499Z,65.96
2019-03-29T03:06:38.714Z,65.70
2019-03-29T03:07:09.932Z,65.50
2019-03-29T03:07:41.142Z,65.37
2019-03-29T03:08:12.343Z,65.26
2019-03-29T03:08:43.583Z,65.20
2019-03-29T03:09:15.029Z,65.20
2019-03-29T03:09:46.291Z,65.35
2019-03-29T03:10:17.527Z,65.48
2019-03-29T03:10:48.732Z,65.46
2019-03-29T03:11:19.950Z,65.55
2019-03-29T03:11:51.162Z,65.74
2019-03-29T03:12:22.378Z,65.83
2019-03-29T03:12:53.587Z,65.70
2019-03-29T03:13:24.828Z,65.58
2019-03-29T03:13:56.050Z,65.71
2019-03-29T03:14:27.265Z,65.72
2019-03-29T03:15:00.513Z,65.70
2019-03-29T03:15:31.739Z,65.61
2019-03-29T03:16:02.955Z,65.93
2019-03-29T03:16:34.182Z,66.04
2019-03-29T03:17:05.424Z,66.23
2019-03-29T03:17:36.614Z,66.05
2019-03-29T03:18:07.827Z,66.29
2019-03-29T03:18:39.041Z,66.48
2019-03-29T03:19:10.243Z,66.44
2019-03-29T03:19:41.512Z,66.47
2019-03-29T03:20:15.509Z,66.47
2019-03-29T03:20:45.669Z,66.33
2019-03-29T03:21:16.905Z,66.10
2019-03-29T03:21:48.098Z,66.05
2019-03-29T03:22:19.312Z,66.18
2019-03-29T03:22:50.573Z,66.17
2019-03-29T03:23:21.861Z,65.95
2019-03-29T03:23:53.093Z,65.57
2019-03-29T03:24:24.357Z,65.55
2019-03-29T03:24:55.626Z,65.68
2019-03-29T03:25:26.849Z,65.94
2019-03-29T03:25:58.080Z,66.04
2019-03-29T03:26:29.304Z,66.07
2019-03-29T03:27:00.527Z,65.78
2019-03-29T03:27:31.768Z,65.89
2019-03-29T03:28:03.003Z,66.13
2019-03-29T03:28:34.237Z,66.28
2019-03-29T03:29:05.452Z,66.25
2019-03-29T03:29:36.701Z,66.19
2019-03-29T03:30:07.920Z,66.22
2019-03-29T03:30:39.181Z,66.27
2019-03-29T03:31:10.442Z,66.40
2019-03-29T03:31:41.662Z,66.28
2019-03-29T03:32:12.901Z,66.23
2019-03-29T03:32:44.160Z,66.21
2019-03-29T03:33:15.403Z,66.06
2019-03-29T03:33:46.595Z,66.11
2019-03-29T03:34:17.792Z,66.16
2019-03-29T03:34:49.038Z,66.21
2019-03-29T03:35:20.253Z,66.30
2019-03-29T03:35:51.481Z,66.21
2019-03-29T03:36:22.705Z,66.23
2019-03-29T03:36:53.895Z,66.30
2019-03-29T03:37:25.103Z,66.27
2019-03-29T03:37:56.305Z,66.31
2019-03-29T03:38:27.539Z,66.51
2019-03-29T03:38:58.743Z,66.51
2019-03-29T03:39:32.243Z,66.82
2019-03-29T03:40:02.939Z,66.89
2019-03-29T03:40:34.143Z,66.93
2019-03-29T03:41:05.347Z,66.83
2019-03-29T03:41:36.553Z,66.66
2019-03-29T03:42:07.761Z,66.43
2019-03-29T03:42:38.974Z,66.46
2019-03-29T03:43:10.186Z,66.37
2019-03-29T03:43:41.415Z,66.29
2019-03-29T03:44:12.626Z,66.35
2019-03-29T03:44:43.846Z,66.42
2019-03-29T03:45:15.135Z,66.59
2019-03-29T03:45:46.320Z,66.79
2019-03-29T03:46:17.521Z,66.86
2019-03-29T03:46:48.750Z,67.00
2019-03-29T03:47:19.953Z,67.05
2019-03-29T03:47:51.175Z,67.41
2019-03-29T03:48:22.400Z,67.58
2019-03-29T03:48:53.661Z,67.58
2019-03-29T03:49:24.914Z,67.92
2019-03-29T03:50:00.518Z,68.04
2019-03-29T03:50:29.178Z,68.17
2019-03-29T03:51:00.390Z,68.32
2019-03-29T03:51:31.608Z,68.57
2019-03-29T03:52:02.829Z,68.77
2019-03-29T03:52:34.069Z,68.94
2019-03-29T03:53:05.302Z,69.06
2019-03-29T03:53:36.505Z,69.22
2019-03-29T03:54:07.720Z,69.35
2019-03-29T03:54:38.938Z,69.25
2019-03-29T03:55:10.154Z,69.31
2019-03-29T03:55:41.397Z,69.38
2019-03-29T03:56:12.596Z,69.43
2019-03-29T03:56:43.817Z,69.67
2019-03-29T03:57:15.019Z,69.91
2019-03-29T03:57:46.287Z,70.08
2019-03-29T03:58:17.497Z,69.95
2019-03-29T03:58:48.708Z,69.97
2019-03-29T03:59:19.946Z,69.93
2019-03-29T03:59:51.185Z,69.87
2019-03-29T04:00:22.404Z,69.81
2019-03-29T04:00:53.638Z,69.76
2019-03-29T04:01:24.841Z,69.81
2019-03-29T04:01:56.062Z,69.90
2019-03-29T04:02:27.320Z,69.91
2019-03-29T04:02:58.537Z,69.97
2019-03-29T04:03:29.793Z,70.04
2019-03-29T04:04:01.005Z,70.13
2019-03-29T04:04:32.214Z,70.20
2019-03-29T04:05:03.433Z,70.26
2019-03-29T04:05:34.746Z,70.28
2019-03-29T04:06:05.954Z,70.31
2019-03-29T04:06:37.170Z,70.32
2019-03-29T04:07:08.373Z,70.30
2019-03-29T04:07:39.586Z,70.36
2019-03-29T04:08:10.799Z,70.40
2019-03-29T04:08:42.094Z,70.42
2019-03-29T04:09:13.318Z,70.40
2019-03-29T04:09:50.140Z,70.41
2019-03-29T04:10:17.548Z,70.49
2019-03-29T04:10:48.930Z,70.59
2019-03-29T04:11:20.189Z,70.40
2019-03-29T04:11:51.402Z,70.18
2019-03-29T04:12:22.621Z,70.14
2019-03-29T04:12:53.828Z,70.10
2019-03-29T04:13:25.037Z,70.07
2019-03-29T04:13:56.249Z,70.09
2019-03-29T04:14:27.448Z,70.09
2019-03-29T04:14:58.678Z,70.08
2019-03-29T04:15:29.916Z,70.03
2019-03-29T04:16:01.153Z,70.01
2019-03-29T04:16:32.361Z,69.97
2019-03-29T04:17:03.565Z,70.35
2019-03-29T04:17:34.800Z,70.49
2019-03-29T04:18:06.000Z,70.49
2019-03-29T04:18:37.231Z,70.50
2019-03-29T04:19:08.492Z,70.67
2019-03-29T04:19:39.742Z,70.28
2019-03-29T04:20:10.949Z,70.01
2019-03-29T04:20:42.193Z,69.84
2019-03-29T04:21:13.444Z,69.70
2019-03-29T04:21:44.660Z,70.06
2019-03-29T04:22:15.867Z,70.01
2019-03-29T04:22:47.127Z,69.68
2019-03-29T04:23:18.448Z,70.00
2019-03-29T04:23:49.681Z,70.77
2019-03-29T04:24:20.897Z,70.76
2019-03-29T04:24:52.111Z,70.55
2019-03-29T04:25:23.380Z,68.92
2019-03-29T04:25:54.603Z,67.68
2019-03-29T04:26:25.806Z,67.34
2019-03-29T04:26:57.011Z,67.04
2019-03-29T04:27:28.218Z,66.86
2019-03-29T04:27:59.450Z,66.63
2019-03-29T04:28:30.660Z,66.57
2019-03-29T04:29:04.982Z,66.64
2019-03-29T04:29:34.903Z,65.67
2019-03-29T04:30:06.244Z,64.84
2019-03-29T04:30:37.468Z,64.17
2019-03-29T04:31:08.744Z,63.85
2019-03-29T04:31:39.956Z,63.35
2019-03-29T04:32:11.177Z,63.26
2019-03-29T04:32:42.530Z,63.55
2019-03-29T04:33:13.745Z,63.62
2019-03-29T04:33:44.982Z,63.38
2019-03-29T04:34:16.214Z,62.71
2019-03-29T04:34:47.443Z,62.09
2019-03-29T04:35:18.716Z,61.55
2019-03-29T04:35:49.910Z,62.68
2019-03-29T04:36:21.177Z,62.38
2019-03-29T04:36:52.401Z,61.06
2019-03-29T04:37:23.616Z,60.26
2019-03-29T04:37:54.852Z,59.64
2019-03-29T04:38:26.062Z,59.13
2019-03-29T04:38:57.276Z,58.76
2019-03-29T04:39:28.496Z,58.61
2019-03-29T04:40:07.762Z,58.37
2019-03-29T04:40:32.662Z,58.01
2019-03-29T04:41:03.837Z,58.11
2019-03-29T04:41:35.125Z,58.05
2019-03-29T04:42:06.376Z,57.59
2019-03-29T04:42:37.582Z,57.22
2019-03-29T04:43:08.808Z,56.81
2019-03-29T04:43:40.017Z,57.05
2019-03-29T04:44:11.239Z,56.13
2019-03-29T04:44:42.447Z,55.80
2019-03-29T04:45:13.659Z,55.75
2019-03-29T04:45:44.868Z,55.81
2019-03-29T04:46:16.055Z,55.76
2019-03-29T04:46:47.305Z,55.67
2019-03-29T04:47:18.565Z,55.38
2019-03-29T04:47:49.842Z,55.27
2019-03-29T04:48:21.055Z,55.14
2019-03-29T04:48:52.264Z,55.09
2019-03-29T04:49:23.529Z,56.21
2019-03-29T04:49:54.778Z,55.41
2019-03-29T04:50:25.967Z,54.93
2019-03-29T04:50:57.178Z,54.25
2019-03-29T04:51:28.388Z,53.57
2019-03-29T04:51:59.592Z,53.44
2019-03-29T04:52:30.852Z,53.19
2019-03-29T04:53:02.085Z,52.87
2019-03-29T04:53:33.301Z,52.60
2019-03-29T04:54:04.509Z,52.24
2019-03-29T04:54:35.759Z,51.64
2019-03-29T04:55:06.988Z,51.37
2019-03-29T04:55:38.192Z,51.15
2019-03-29T04:56:09.408Z,50.86
2019-03-29T04:56:40.618Z,50.80
2019-03-29T04:57:11.880Z,50.84
2019-03-29T04:57:43.149Z,51.50
2019-03-29T04:58:14.333Z,51.60
2019-03-29T04:58:45.570Z,51.88
2019-03-29T04:59:16.775Z,51.80
2019-03-29T04:59:48.000Z,51.80
2019-03-29T05:00:19.206Z,52.22
2019-03-29T05:00:50.432Z,52.27
2019-03-29T05:01:21.649Z,52.51
2019-03-29T05:01:52.864Z,52.53
2019-03-29T05:02:24.076Z,52.24
2019-03-29T05:02:55.326Z,52.16
2019-03-29T05:03:26.579Z,51.68
2019-03-29T05:03:57.790Z,51.62
2019-03-29T05:04:29.002Z,51.83
2019-03-29T05:05:00.415Z,51.87
2019-03-29T05:05:31.606Z,51.93
2019-03-29T05:06:02.818Z,51.89
2019-03-29T05:06:34.012Z,52.22
2019-03-29T05:07:05.235Z,52.37
2019-03-29T05:07:37.156Z,52.22
2019-03-29T05:08:08.554Z,51.78
2019-03-29T05:08:39.764Z,51.14
2019-03-29T05:09:11.011Z,51.56
2019-03-29T05:09:42.212Z,50.97
2019-03-29T05:10:21.259Z,50.59
2019-03-29T05:10:46.393Z,50.53
2019-03-29T05:11:17.592Z,50.54
2019-03-29T05:11:48.797Z,50.76
2019-03-29T05:12:20.026Z,50.31
2019-03-29T05:12:51.251Z,50.52
2019-03-29T05:13:22.499Z,50.79
2019-03-29T05:13:53.711Z,51.88
2019-03-29T05:14:24.929Z,52.04
2019-03-29T05:14:56.144Z,51.94
2019-03-29T05:15:27.358Z,51.55
2019-03-29T05:15:58.601Z,52.26
2019-03-29T05:16:29.814Z,51.78
2019-03-29T05:17:01.023Z,50.51
2019-03-29T05:17:32.280Z,50.18
2019-03-29T05:18:03.482Z,49.60
2019-03-29T05:18:34.681Z,50.85
2019-03-29T05:19:05.884Z,50.27
2019-03-29T05:19:37.125Z,50.96
2019-03-29T05:20:08.313Z,50.28
2019-03-29T05:20:39.578Z,50.70
2019-03-29T05:21:10.805Z,49.76
2019-03-29T05:21:42.056Z,49.37
2019-03-29T05:22:13.277Z,48.86
2019-03-29T05:22:44.471Z,48.75
2019-03-29T05:23:15.721Z,48.56
2019-03-29T05:23:46.968Z,48.55
2019-03-29T05:24:18.167Z,48.67
2019-03-29T05:24:49.397Z,50.26
2019-03-29T05:25:20.661Z,50.91
2019-03-29T05:25:51.856Z,49.43
2019-03-29T05:26:25.456Z,50.04
2019-03-29T05:26:56.101Z,48.89
2019-03-29T05:27:27.272Z,48.92
2019-03-29T05:27:58.476Z,49.67
2019-03-29T05:28:29.716Z,49.35
2019-03-29T05:29:00.937Z,49.33
2019-03-29T05:29:32.265Z,50.19
2019-03-29T05:30:03.436Z,51.12
2019-03-29T05:30:34.721Z,50.18
2019-03-29T05:31:05.928Z,50.85
2019-03-29T05:31:37.149Z,51.85
2019-03-29T05:32:08.498Z,50.93
2019-03-29T05:32:39.741Z,50.29
2019-03-29T05:33:10.953Z,50.42
2019-03-29T05:33:42.208Z,49.49
2019-03-29T05:34:13.415Z,48.70
2019-03-29T05:34:44.622Z,48.99
2019-03-29T05:35:15.827Z,47.92
2019-03-29T05:35:47.053Z,49.02
2019-03-29T05:36:18.281Z,48.43
2019-03-29T05:36:49.490Z,47.97
2019-03-29T05:37:20.725Z,48.68
2019-03-29T05:37:52.026Z,48.63
2019-03-29T05:38:23.232Z,48.62
2019-03-29T05:38:54.460Z,48.72
2019-03-29T05:39:25.651Z,48.78
2019-03-29T05:39:56.846Z,49.41
2019-03-29T05:40:34.989Z,49.49
2019-03-29T05:41:01.081Z,49.69
2019-03-29T05:41:32.294Z,48.92
2019-03-29T05:42:03.510Z,48.62
2019-03-29T05:42:34.845Z,48.61
2019-03-29T05:43:06.032Z,48.60
2019-03-29T05:43:37.294Z,48.60
2019-03-29T05:44:08.567Z,48.56
2019-03-29T05:44:40.924Z,48.61
2019-03-29T05:45:12.260Z,48.92
2019-03-29T05:45:43.502Z,48.95
2019-03-29T05:46:14.711Z,49.10
2019-03-29T05:46:45.920Z,50.24
2019-03-29T05:47:17.158Z,49.71
2019-03-29T05:47:48.427Z,49.50
2019-03-29T05:48:19.666Z,49.52
2019-03-29T05:48:50.916Z,49.38
2019-03-29T05:49:22.126Z,49.25
2019-03-29T05:49:53.581Z,50.37
2019-03-29T05:50:24.771Z,49.53
2019-03-29T05:50:55.974Z,49.08
2019-03-29T05:51:27.190Z,48.73
2019-03-29T05:51:58.416Z,48.47
2019-03-29T05:52:29.634Z,48.42
2019-03-29T05:53:00.919Z,49.13
2019-03-29T05:53:32.129Z,50.49
2019-03-29T05:54:03.342Z,49.56
2019-03-29T05:54:34.546Z,48.66
2019-03-29T05:55:05.781Z,48.63
2019-03-29T05:55:37.113Z,48.69
2019-03-29T05:56:08.316Z,48.59
2019-03-29T05:56:39.529Z,48.37
2019-03-29T05:57:10.733Z,49.00
2019-03-29T05:57:41.928Z,49.04
2019-03-29T05:58:13.222Z,49.21
2019-03-29T05:58:44.472Z,50.02
2019-03-29T05:59:15.680Z,48.57
2019-03-29T05:59:46.894Z,48.79
2019-03-29T06:00:18.094Z,47.74
2019-03-29T06:00:49.302Z,47.29
2019-03-29T06:01:20.509Z,47.61
2019-03-29T06:01:51.752Z,47.42
2019-03-29T06:02:22.953Z,48.03
2019-03-29T06:02:54.248Z,46.71
2019-03-29T06:03:25.460Z,46.40
2019-03-29T06:03:56.766Z,45.91
2019-03-29T06:04:27.989Z,45.69
2019-03-29T06:04:59.206Z,45.19
2019-03-29T06:05:30.449Z,45.23
2019-03-29T06:06:01.691Z,45.20
2019-03-29T06:06:32.901Z,45.44
2019-03-29T06:07:04.264Z,45.50
2019-03-29T06:07:35.502Z,45.63
2019-03-29T06:08:06.713Z,45.94
2019-03-29T06:08:37.916Z,45.86
2019-03-29T06:09:09.154Z,45.84
2019-03-29T06:09:40.460Z,46.22
2019-03-29T06:10:11.649Z,46.36
2019-03-29T06:10:48.835Z,46.59
2019-03-29T06:11:15.809Z,46.72
2019-03-29T06:11:47.011Z,46.76
2019-03-29T06:12:18.299Z,46.80
2019-03-29T06:12:49.518Z,46.89
2019-03-29T06:13:20.797Z,46.87
2019-03-29T06:13:52.018Z,46.88
2019-03-29T06:14:23.238Z,46.96
2019-03-29T06:14:54.434Z,47.03
2019-03-29T06:15:25.647Z,46.77
2019-03-29T06:15:56.863Z,46.56
2019-03-29T06:16:38.269Z,46.77
2019-03-29T06:17:01.057Z,47.16
2019-03-29T06:17:32.386Z,47.47
2019-03-29T06:18:03.598Z,47.95
2019-03-29T06:18:34.843Z,47.74
2019-03-29T06:19:06.047Z,47.33
2019-03-29T06:19:37.297Z,47.37
2019-03-29T06:20:08.503Z,47.58
2019-03-29T06:20:39.746Z,47.83
2019-03-29T06:21:10.972Z,48.38
2019-03-29T06:21:42.189Z,48.34
2019-03-29T06:22:13.443Z,47.69
2019-03-29T06:22:44.693Z,47.40
2019-03-29T06:23:15.899Z,47.40
2019-03-29T06:23:47.103Z,47.32
2019-03-29T06:24:18.312Z,47.24
2019-03-29T06:24:49.577Z,47.17
2019-03-29T06:25:20.848Z,47.72
2019-03-29T06:25:52.045Z,47.89
2019-03-29T06:26:23.484Z,48.36
2019-03-29T06:26:54.717Z,47.98
2019-03-29T06:27:25.935Z,47.98
2019-03-29T06:27:57.130Z,47.73
2019-03-29T06:28:29.975Z,47.26
2019-03-29T06:29:01.448Z,47.94
2019-03-29T06:29:32.736Z,48.50
2019-03-29T06:30:03.984Z,47.50
2019-03-29T06:30:35.210Z,46.78
2019-03-29T06:31:06.421Z,46.57
2019-03-29T06:31:37.648Z,46.45
2019-03-29T06:32:08.854Z,47.07
2019-03-29T06:32:40.106Z,46.46
2019-03-29T06:33:11.330Z,46.30
2019-03-29T06:33:44.528Z,46.55
2019-03-29T06:34:15.481Z,46.59
2019-03-29T06:34:46.685Z,47.26
2019-03-29T06:35:17.905Z,47.37
2019-03-29T06:35:49.104Z,47.37
2019-03-29T06:36:20.339Z,46.70
2019-03-29T06:36:51.569Z,46.16
2019-03-29T06:37:22.791Z,45.83
2019-03-29T06:37:54.090Z,45.69
2019-03-29T06:38:25.355Z,45.80
2019-03-29T06:38:56.574Z,46.05
2019-03-29T06:39:27.776Z,46.34
2019-03-29T06:39:58.992Z,47.27
2019-03-29T06:40:30.251Z,46.91
2019-03-29T06:41:03.161Z,46.08
2019-03-29T06:41:34.394Z,46.40
2019-03-29T06:42:05.602Z,45.46
2019-03-29T06:42:36.807Z,46.39
2019-03-29T06:43:08.052Z,44.94